createdAt,value
2022-08-14T00:00:37.246Z,2.80
2022-08-14T00:01:37.251Z,3.20
2022-08-14T00:02:37.265Z,2.90
2022-08-14T00:03:37.216Z,2.40
2022-08-14T00:04:41.969Z,2.90
2022-08-14T00:05:38.182Z,2.60
2022-08-14T00:06:38.172Z,1.90
2022-08-14T00:07:42.071Z,2.10
2022-08-14T00:08:43.543Z,1.90
2022-08-14T00:09:39.913Z,1.60
2022-08-14T00:10:51.383Z,1.50
2022-08-14T00:11:38.113Z,1.50
2022-08-14T00:12:39.619Z,1.50
2022-08-14T00:13:37.104Z,1.50
2022-08-14T00:14:37.092Z,1.60
2022-08-14T00:15:43.554Z,1.50
2022-08-14T00:16:41.251Z,1.60
2022-08-14T00:17:48.232Z,1.90
2022-08-14T00:19:05.535Z,1.40
2022-08-14T00:19:38.035Z,1.50
2022-08-14T00:20:41.193Z,1.50
2022-08-14T00:21:38.042Z,1.70
2022-08-14T00:22:56.546Z,1.60
2022-08-14T00:23:37.996Z,1.30
2022-08-14T00:24:36.996Z,1.40
2022-08-14T00:25:42.359Z,1.50
2022-08-14T00:26:37.967Z,1.40
2022-08-14T00:27:38.016Z,1.60
2022-08-14T00:28:37.244Z,1.60
2022-08-14T00:29:40.295Z,1.60
2022-08-14T00:30:36.927Z,1.50
2022-08-14T00:31:45.800Z,1.70
2022-08-14T00:32:51.726Z,1.80
2022-08-14T00:33:51.441Z,1.30
2022-08-14T00:34:47.170Z,1.40
2022-08-14T00:36:37.140Z,1.60
2022-08-14T00:36:48.353Z,1.70
2022-08-14T00:37:37.852Z,1.50
2022-08-14T00:38:36.880Z,1.60
2022-08-14T00:39:36.853Z,1.60
2022-08-14T00:40:36.834Z,1.40
2022-08-14T00:41:36.816Z,1.60
2022-08-14T00:42:54.871Z,1.70
2022-08-14T00:43:37.820Z,1.40
2022-08-14T00:44:38.722Z,1.30
2022-08-14T00:45:36.772Z,1.90
2022-08-14T00:46:36.762Z,1.50
2022-08-14T00:47:42.992Z,1.60
2022-08-14T00:48:38.376Z,1.50
2022-08-14T00:49:38.216Z,1.60
2022-08-14T00:50:37.726Z,1.70
2022-08-14T00:51:38.340Z,1.50
2022-08-14T00:52:36.758Z,1.50
2022-08-14T00:53:36.687Z,1.80
2022-08-14T00:54:36.685Z,1.40
2022-08-14T00:55:36.695Z,1.50
2022-08-14T00:56:36.666Z,1.20
2022-08-14T00:57:36.656Z,1.40
2022-08-14T00:58:36.646Z,1.40
2022-08-14T00:59:37.627Z,1.50
2022-08-14T01:00:42.826Z,1.50
2022-08-14T01:01:37.684Z,1.50
2022-08-14T01:02:36.609Z,1.40
2022-08-14T01:03:36.589Z,1.50
2022-08-14T01:04:38.188Z,1.50
2022-08-14T01:05:41.697Z,1.70
2022-08-14T01:06:37.558Z,1.40
2022-08-14T01:07:38.641Z,1.60
2022-08-14T01:08:51.979Z,1.60
2022-08-14T01:09:37.530Z,1.60
2022-08-14T01:10:38.379Z,1.60
2022-08-14T01:11:36.500Z,1.50
2022-08-14T01:12:40.480Z,1.40
2022-08-14T01:13:42.974Z,1.20
2022-08-14T01:14:37.473Z,1.60
2022-08-14T01:15:58.340Z,1.30
2022-08-14T01:16:37.461Z,1.80
2022-08-14T01:17:36.444Z,1.60
2022-08-14T01:18:37.462Z,1.30
2022-08-14T01:19:36.424Z,1.60
2022-08-14T01:20:40.072Z,1.50
2022-08-14T01:21:46.631Z,1.40
2022-08-14T01:22:37.403Z,1.90
2022-08-14T01:23:46.734Z,1.90
2022-08-14T01:24:37.415Z,1.60
2022-08-14T01:25:36.361Z,1.40
2022-08-14T01:26:39.068Z,1.30
2022-08-14T01:27:36.676Z,1.50
2022-08-14T01:28:56.095Z,1.50
2022-08-14T01:29:58.733Z,1.50
2022-08-14T01:30:39.905Z,1.30
2022-08-14T01:31:37.049Z,1.50
2022-08-14T01:32:42.349Z,1.30
2022-08-14T01:33:59.114Z,1.40
2022-08-14T01:35:18.014Z,1.40
2022-08-14T01:36:04.361Z,1.50
2022-08-14T01:36:37.278Z,1.70
2022-08-14T01:37:36.240Z,1.70
2022-08-14T01:38:37.030Z,1.90
2022-08-14T01:39:37.757Z,1.70
2022-08-14T01:40:41.856Z,1.40
2022-08-14T01:41:37.189Z,1.50
2022-08-14T01:42:36.519Z,1.80
2022-08-14T01:43:36.179Z,1.40
2022-08-14T01:44:36.170Z,1.70
2022-08-14T01:45:40.588Z,1.60
2022-08-14T01:46:36.656Z,1.80
2022-08-14T01:47:37.229Z,1.90
2022-08-14T01:48:37.314Z,1.80
2022-08-14T01:49:46.048Z,1.80
2022-08-14T01:50:37.101Z,1.70
2022-08-14T01:51:36.417Z,1.80
2022-08-14T01:52:58.905Z,1.60
2022-08-14T01:53:37.100Z,1.60
2022-08-14T01:54:38.111Z,1.30
2022-08-14T01:55:36.071Z,1.80
2022-08-14T01:56:37.326Z,1.70
2022-08-14T01:58:00.798Z,1.80
2022-08-14T01:58:37.024Z,2.00
2022-08-14T01:59:37.938Z,1.50
2022-08-14T02:00:36.496Z,2.00
2022-08-14T02:01:36.057Z,1.90
2022-08-14T02:02:36.720Z,1.90
2022-08-14T02:03:35.965Z,2.10
2022-08-14T02:04:56.119Z,2.40
2022-08-14T02:05:38.504Z,2.20
2022-08-14T02:06:35.935Z,2.20
2022-08-14T02:07:53.665Z,1.90
2022-08-14T02:08:36.916Z,2.20
2022-08-14T02:09:36.908Z,2.10
2022-08-14T02:10:42.742Z,2.00
2022-08-14T02:11:36.947Z,1.70
2022-08-14T02:12:35.878Z,2.00
2022-08-14T02:13:37.217Z,1.90
2022-08-14T02:14:35.860Z,2.00
2022-08-14T02:15:35.846Z,2.10
2022-08-14T02:16:35.839Z,1.90
2022-08-14T02:17:35.860Z,2.00
2022-08-14T02:18:35.816Z,1.90
2022-08-14T02:19:35.804Z,2.30
2022-08-14T02:20:36.111Z,2.10
2022-08-14T02:21:43.437Z,1.80
2022-08-14T02:22:47.718Z,2.30
2022-08-14T02:23:36.762Z,2.00
2022-08-14T02:24:39.207Z,2.00
2022-08-14T02:25:36.753Z,1.80
2022-08-14T02:28:18.723Z,1.90
2022-08-14T02:28:21.961Z,2.10
2022-08-14T02:28:57.670Z,2.00
2022-08-14T02:29:59.269Z,2.30
2022-08-14T02:30:38.527Z,2.40
2022-08-14T02:31:42.459Z,1.80
2022-08-14T02:32:37.522Z,2.00
2022-08-14T02:33:39.371Z,2.00
2022-08-14T02:34:36.645Z,2.20
2022-08-14T02:35:40.571Z,2.00
2022-08-14T02:37:05.323Z,1.90
2022-08-14T02:37:47.057Z,2.10
2022-08-14T02:38:36.606Z,1.90
2022-08-14T02:39:36.263Z,1.80
2022-08-14T02:40:35.627Z,1.90
2022-08-14T02:41:39.966Z,2.00
2022-08-14T02:42:36.946Z,2.10
2022-08-14T02:43:36.944Z,1.90
2022-08-14T02:44:39.857Z,1.90
2022-08-14T02:45:38.842Z,1.90
2022-08-14T02:46:36.528Z,2.00
2022-08-14T02:47:35.467Z,2.30
2022-08-14T02:49:01.528Z,1.80
2022-08-14T02:49:36.447Z,1.80
2022-08-14T02:50:35.453Z,1.70
2022-08-14T02:51:36.376Z,2.00
2022-08-14T02:52:56.146Z,1.70
2022-08-14T02:53:37.430Z,1.90
2022-08-14T02:54:35.392Z,2.20
2022-08-14T02:55:35.389Z,2.00
2022-08-14T02:57:16.132Z,1.70
2022-08-14T02:57:40.519Z,2.00
2022-08-14T02:58:35.403Z,2.00
2022-08-14T02:59:35.333Z,1.80
2022-08-14T03:00:35.629Z,1.70
2022-08-14T03:01:43.446Z,1.80
2022-08-14T03:02:56.316Z,1.70
2022-08-14T03:03:38.926Z,1.70
2022-08-14T03:04:35.295Z,2.00
2022-08-14T03:05:36.908Z,1.70
2022-08-14T03:06:57.565Z,1.60
2022-08-14T03:07:36.265Z,1.70
2022-08-14T03:08:35.254Z,1.90
2022-08-14T03:10:24.295Z,2.00
2022-08-14T03:10:36.238Z,1.80
2022-08-14T03:11:36.216Z,1.80
2022-08-14T03:12:35.217Z,1.70
2022-08-14T03:13:35.195Z,1.70
2022-08-14T03:14:35.187Z,1.60
2022-08-14T03:15:35.205Z,1.80
2022-08-14T03:16:35.167Z,1.80
2022-08-14T03:17:56.420Z,1.80
2022-08-14T03:18:36.149Z,1.90
2022-08-14T03:19:35.136Z,1.60
2022-08-14T03:20:35.127Z,2.10
2022-08-14T03:21:35.144Z,1.80
2022-08-14T03:22:35.133Z,1.90
2022-08-14T03:23:36.409Z,1.70
2022-08-14T03:24:35.088Z,2.00
2022-08-14T03:25:37.835Z,1.70
2022-08-14T03:26:35.067Z,1.90
2022-08-14T03:27:35.516Z,1.40
2022-08-14T03:28:36.799Z,1.90
2022-08-14T03:29:35.039Z,1.70
2022-08-14T03:30:39.514Z,1.80
2022-08-14T03:31:36.011Z,1.50
2022-08-14T03:32:35.011Z,1.90
2022-08-14T03:33:38.065Z,1.80
2022-08-14T03:34:53.050Z,1.70
2022-08-14T03:35:39.963Z,1.90
2022-08-14T03:37:38.143Z,2.10
2022-08-14T03:39:08.746Z,1.70
2022-08-14T03:39:11.546Z,2.00
2022-08-14T03:39:35.995Z,1.90
2022-08-14T03:40:34.924Z,2.30
2022-08-14T03:41:34.919Z,2.00
2022-08-14T03:42:36.562Z,2.20
2022-08-14T03:43:34.894Z,2.10
2022-08-14T03:45:26.762Z,1.80
2022-08-14T03:45:35.885Z,2.00
2022-08-14T03:46:52.139Z,2.20
2022-08-14T03:47:46.416Z,2.10
2022-08-14T03:48:37.363Z,1.70
2022-08-14T03:49:34.827Z,1.90
2022-08-14T03:50:34.848Z,1.90
2022-08-14T03:51:34.808Z,1.90
2022-08-14T03:52:40.505Z,2.00
2022-08-14T03:53:35.778Z,1.60
2022-08-14T03:54:34.779Z,1.90
2022-08-14T03:55:34.767Z,2.00
2022-08-14T03:56:34.776Z,1.80
2022-08-14T03:57:37.183Z,2.00
2022-08-14T03:58:36.682Z,1.80
2022-08-14T03:59:35.343Z,1.60
2022-08-14T04:00:44.348Z,1.80
2022-08-14T04:01:39.048Z,1.80
2022-08-14T04:02:37.198Z,1.80
2022-08-14T04:03:37.422Z,1.80
2022-08-14T04:04:34.670Z,1.70
2022-08-14T04:05:38.093Z,1.80
2022-08-14T04:06:35.642Z,1.90
2022-08-14T04:07:36.149Z,1.80
2022-08-14T04:08:34.630Z,1.90
2022-08-14T04:09:34.621Z,1.90
2022-08-14T04:10:34.614Z,2.00
2022-08-14T04:11:34.602Z,1.80
2022-08-14T04:12:34.583Z,2.10
2022-08-14T04:13:34.690Z,1.90
2022-08-14T04:14:37.348Z,1.50
2022-08-14T04:15:55.929Z,1.80
2022-08-14T04:16:35.566Z,1.70
2022-08-14T04:17:34.545Z,1.60
2022-08-14T04:18:34.525Z,2.00
2022-08-14T04:19:36.544Z,1.70
2022-08-14T04:20:34.504Z,1.80
2022-08-14T04:21:39.740Z,2.00
2022-08-14T04:22:35.543Z,1.60
2022-08-14T04:23:34.483Z,1.70
2022-08-14T04:24:38.382Z,1.70
2022-08-14T04:25:34.487Z,2.10
2022-08-14T04:26:42.693Z,1.70
2022-08-14T04:27:48.575Z,2.00
2022-08-14T04:29:05.331Z,2.20
2022-08-14T04:29:35.416Z,1.80
2022-08-14T04:30:34.401Z,1.70
2022-08-14T04:32:58.133Z,2.10
2022-08-14T04:32:58.485Z,1.80
2022-08-14T04:33:35.380Z,1.80
2022-08-14T04:34:34.370Z,1.80
2022-08-14T04:35:55.614Z,1.60
2022-08-14T04:36:36.191Z,2.00
2022-08-14T04:37:34.344Z,1.70
2022-08-14T04:38:36.634Z,1.70
2022-08-14T04:39:34.361Z,1.80
2022-08-14T04:40:35.342Z,1.50
2022-08-14T04:41:35.296Z,1.90
2022-08-14T04:42:34.361Z,1.70
2022-08-14T04:43:39.003Z,1.50
2022-08-14T04:44:36.718Z,1.70
2022-08-14T04:45:34.254Z,2.20
2022-08-14T04:46:56.914Z,1.80
2022-08-14T04:47:35.271Z,1.70
2022-08-14T04:48:43.212Z,2.00
2022-08-14T04:49:35.206Z,1.90
2022-08-14T04:50:45.059Z,2.30
2022-08-14T04:51:46.207Z,2.00
2022-08-14T04:52:35.265Z,1.60
2022-08-14T04:53:35.073Z,2.20
2022-08-14T04:54:34.155Z,2.00
2022-08-14T04:55:34.150Z,1.90
2022-08-14T04:56:34.866Z,2.00
2022-08-14T04:57:34.137Z,1.90
2022-08-14T04:58:34.206Z,2.00
2022-08-14T04:59:34.138Z,1.80
2022-08-14T05:00:34.097Z,2.10
2022-08-14T05:01:40.008Z,2.00
2022-08-14T05:02:35.163Z,2.30
2022-08-14T05:03:34.070Z,2.40
2022-08-14T05:04:34.060Z,2.40
2022-08-14T05:05:35.079Z,2.00
2022-08-14T05:06:35.146Z,2.20
2022-08-14T05:07:54.655Z,1.90
2022-08-14T05:08:50.397Z,1.80
2022-08-14T05:09:35.005Z,2.30
2022-08-14T05:10:33.992Z,1.90
2022-08-14T05:11:36.563Z,2.00
2022-08-14T05:13:19.838Z,2.30
2022-08-14T05:13:47.479Z,1.90
2022-08-14T05:14:45.928Z,2.20
2022-08-14T05:15:34.943Z,1.90
2022-08-14T05:16:33.934Z,2.10
2022-08-14T05:17:43.652Z,2.20
2022-08-14T05:19:16.980Z,2.00
2022-08-14T05:19:44.424Z,2.30
2022-08-14T05:21:59.586Z,1.90
2022-08-14T05:22:00.484Z,2.10
2022-08-14T05:22:34.893Z,1.80
2022-08-14T05:23:33.862Z,2.20
2022-08-14T05:24:33.869Z,2.30
2022-08-14T05:25:34.350Z,2.30
2022-08-14T05:26:33.827Z,2.00
2022-08-14T05:27:33.818Z,1.80
2022-08-14T05:28:33.844Z,1.70
2022-08-14T05:29:33.798Z,2.00
2022-08-14T05:30:33.783Z,1.80
2022-08-14T05:31:39.644Z,1.60
2022-08-14T05:32:34.760Z,2.00
2022-08-14T05:33:33.762Z,1.90
2022-08-14T05:34:33.769Z,1.70
2022-08-14T05:35:33.738Z,2.00
2022-08-14T05:36:33.721Z,1.70
2022-08-14T05:37:33.711Z,2.10
2022-08-14T05:38:35.269Z,1.70
2022-08-14T05:39:33.730Z,1.90
2022-08-14T05:40:33.720Z,1.90
2022-08-14T05:41:52.621Z,2.00
2022-08-14T05:42:34.676Z,2.00
2022-08-14T05:43:41.137Z,1.60
2022-08-14T05:44:34.643Z,2.00
2022-08-14T05:45:33.633Z,1.90
2022-08-14T05:46:33.655Z,1.90
2022-08-14T05:47:39.017Z,1.90
2022-08-14T05:48:42.954Z,1.80
2022-08-14T05:49:34.587Z,2.00
2022-08-14T05:50:33.583Z,1.90
2022-08-14T05:51:33.573Z,1.90
2022-08-14T05:52:39.106Z,1.70
2022-08-14T05:53:34.552Z,1.60
2022-08-14T05:54:35.632Z,1.90
2022-08-14T05:55:33.529Z,1.70
2022-08-14T05:56:33.517Z,1.70
2022-08-14T05:57:33.529Z,1.90
2022-08-14T05:58:33.857Z,1.90
2022-08-14T05:59:36.486Z,2.00
2022-08-14T06:00:37.175Z,1.90
2022-08-14T06:01:34.519Z,1.70
2022-08-14T06:02:33.462Z,1.70
2022-08-14T06:03:33.449Z,1.70
2022-08-14T06:04:33.460Z,1.80
2022-08-14T06:05:33.421Z,1.70
2022-08-14T06:06:38.438Z,1.80
2022-08-14T06:07:34.404Z,2.00
2022-08-14T06:08:41.244Z,1.90
2022-08-14T06:09:35.969Z,1.70
2022-08-14T06:10:34.364Z,1.70
2022-08-14T06:11:33.365Z,1.90
2022-08-14T06:12:56.624Z,1.70
2022-08-14T06:13:41.178Z,1.70
2022-08-14T06:14:34.337Z,1.70
2022-08-14T06:15:34.019Z,1.40
2022-08-14T06:16:33.314Z,1.50
2022-08-14T06:17:38.842Z,1.70
2022-08-14T06:18:34.285Z,1.90
2022-08-14T06:19:33.281Z,2.00
2022-08-14T06:20:34.356Z,1.80
2022-08-14T06:21:33.278Z,1.50
2022-08-14T06:22:33.249Z,1.60
2022-08-14T06:23:33.239Z,1.70
2022-08-14T06:24:35.037Z,1.50
2022-08-14T06:25:33.228Z,1.70
2022-08-14T06:26:33.209Z,1.70
2022-08-14T06:27:34.069Z,1.80
2022-08-14T06:28:33.180Z,1.90
2022-08-14T06:29:34.806Z,1.80
2022-08-14T06:30:46.230Z,1.70
2022-08-14T06:31:34.162Z,1.70
2022-08-14T06:32:37.549Z,1.70
2022-08-14T06:35:04.520Z,1.90
2022-08-14T06:35:11.300Z,1.90
2022-08-14T06:35:34.115Z,1.70
2022-08-14T06:36:33.093Z,1.90
2022-08-14T06:37:33.095Z,1.80
2022-08-14T06:38:33.093Z,1.60
2022-08-14T06:39:36.659Z,1.70
2022-08-14T06:40:34.246Z,1.70
2022-08-14T06:41:57.026Z,1.80
2022-08-14T06:42:34.045Z,1.90
2022-08-14T06:43:33.040Z,1.60
2022-08-14T06:44:33.350Z,1.60
2022-08-14T06:45:33.041Z,1.90
2022-08-14T06:46:36.922Z,1.60
2022-08-14T06:47:32.989Z,1.70
2022-08-14T06:48:32.987Z,2.00
2022-08-14T06:49:40.028Z,1.80
2022-08-14T06:50:33.990Z,1.70
2022-08-14T06:51:44.956Z,1.90
2022-08-14T06:52:33.951Z,1.60
2022-08-14T06:53:32.940Z,1.60
2022-08-14T06:54:32.919Z,1.60
2022-08-14T06:55:32.912Z,1.70
2022-08-14T06:56:32.925Z,1.70
2022-08-14T06:57:32.892Z,1.80
2022-08-14T06:58:32.875Z,1.90
2022-08-14T06:59:33.748Z,1.70
2022-08-14T07:00:32.908Z,1.80
2022-08-14T07:01:32.890Z,1.40
2022-08-14T07:02:32.854Z,1.60
2022-08-14T07:03:32.826Z,1.70
2022-08-14T07:04:32.824Z,1.90
2022-08-14T07:05:32.806Z,1.80
2022-08-14T07:06:46.423Z,1.70
2022-08-14T07:07:33.817Z,1.60
2022-08-14T07:08:32.775Z,1.60
2022-08-14T07:09:44.337Z,1.60
2022-08-14T07:10:33.786Z,1.60
2022-08-14T07:11:32.747Z,1.60
2022-08-14T07:12:56.041Z,1.70
2022-08-14T07:13:33.749Z,1.60
2022-08-14T07:14:32.719Z,1.60
2022-08-14T07:15:34.339Z,1.70
2022-08-14T07:16:33.691Z,1.30
2022-08-14T07:17:36.253Z,1.40
2022-08-14T07:18:32.671Z,1.40
2022-08-14T07:19:32.702Z,1.50
2022-08-14T07:20:32.760Z,1.40
2022-08-14T07:21:32.650Z,1.70
2022-08-14T07:22:49.846Z,1.80
2022-08-14T07:23:33.622Z,1.70
2022-08-14T07:24:33.642Z,1.60
2022-08-14T07:25:33.131Z,1.50
2022-08-14T07:26:32.594Z,1.60
2022-08-14T07:27:33.582Z,1.70
2022-08-14T07:28:32.573Z,1.60
2022-08-14T07:29:32.556Z,1.60
2022-08-14T07:30:33.835Z,1.40
2022-08-14T07:31:33.538Z,1.50
2022-08-14T07:32:34.055Z,1.60
2022-08-14T07:33:32.526Z,1.50
2022-08-14T07:34:40.762Z,1.70
2022-08-14T07:35:37.525Z,1.70
2022-08-14T07:36:33.485Z,1.70
2022-08-14T07:37:32.480Z,1.40
2022-08-14T07:38:37.860Z,1.70
2022-08-14T07:39:34.488Z,1.80
2022-08-14T07:40:32.448Z,1.70
2022-08-14T07:41:35.720Z,1.40
2022-08-14T07:42:32.423Z,1.60
2022-08-14T07:43:32.423Z,1.50
2022-08-14T07:44:45.756Z,1.60
2022-08-14T07:45:33.405Z,1.60
2022-08-14T07:46:32.383Z,1.50
2022-08-14T07:47:32.414Z,1.50
2022-08-14T07:48:32.365Z,1.50
2022-08-14T07:49:32.357Z,1.40
2022-08-14T07:50:34.417Z,1.40
2022-08-14T07:51:36.712Z,1.60
2022-08-14T07:52:32.325Z,1.60
2022-08-14T07:53:34.158Z,1.60
2022-08-14T07:54:33.298Z,1.40
2022-08-14T07:55:32.296Z,1.40
2022-08-14T07:56:47.510Z,1.50
2022-08-14T07:57:33.273Z,1.40
2022-08-14T07:58:38.704Z,1.40
2022-08-14T07:59:42.690Z,1.30
2022-08-14T08:00:33.418Z,1.30
2022-08-14T08:01:32.229Z,1.50
2022-08-14T08:02:32.627Z,1.30
2022-08-14T08:03:32.251Z,1.40
2022-08-14T08:04:34.045Z,1.40
2022-08-14T08:05:32.213Z,1.40
2022-08-14T08:06:32.187Z,1.30
2022-08-14T08:07:32.175Z,1.40
2022-08-14T08:08:32.165Z,1.40
2022-08-14T08:09:32.731Z,1.50
2022-08-14T08:11:02.070Z,1.50
2022-08-14T08:11:34.852Z,1.30
2022-08-14T08:12:32.601Z,1.30
2022-08-14T08:13:33.108Z,1.50
2022-08-14T08:14:32.106Z,1.40
2022-08-14T08:15:33.095Z,1.30
2022-08-14T08:16:32.087Z,1.30
2022-08-14T08:17:34.766Z,1.40
2022-08-14T08:18:33.073Z,1.00
2022-08-14T08:19:36.999Z,1.40
2022-08-14T08:20:33.052Z,1.10
2022-08-14T08:21:33.382Z,1.40
2022-08-14T08:22:32.561Z,1.30
2022-08-14T08:23:40.260Z,1.40
2022-08-14T08:24:33.003Z,1.40
2022-08-14T08:25:31.994Z,1.40
2022-08-14T08:26:31.983Z,1.10
2022-08-14T08:27:31.964Z,1.60
2022-08-14T08:28:31.963Z,1.20
2022-08-14T08:29:31.982Z,1.20
2022-08-14T08:30:31.945Z,1.20
2022-08-14T08:31:32.918Z,1.40
2022-08-14T08:32:31.926Z,1.50
2022-08-14T08:33:36.846Z,1.40
2022-08-14T08:34:32.917Z,1.30
2022-08-14T08:35:46.468Z,1.30
2022-08-14T08:36:32.880Z,1.30
2022-08-14T08:37:31.868Z,1.40
2022-08-14T08:39:17.841Z,1.30
2022-08-14T08:40:01.662Z,1.20
2022-08-14T08:40:32.943Z,1.40
2022-08-14T08:41:31.829Z,1.20
2022-08-14T08:42:38.591Z,1.30
2022-08-14T08:43:32.810Z,1.20
2022-08-14T08:44:34.474Z,1.10
2022-08-14T08:45:31.792Z,1.20
2022-08-14T08:46:31.803Z,1.30
2022-08-14T08:47:31.765Z,1.40
2022-08-14T08:48:36.515Z,1.30
2022-08-14T08:49:36.114Z,1.40
2022-08-14T08:50:49.323Z,1.30
2022-08-14T08:51:34.301Z,1.40
2022-08-14T08:52:32.376Z,1.30
2022-08-14T08:53:31.716Z,1.30
2022-08-14T08:54:31.719Z,1.20
2022-08-14T08:55:31.698Z,1.30
2022-08-14T08:56:39.609Z,1.10
2022-08-14T08:57:32.707Z,1.40
2022-08-14T08:58:31.659Z,1.30
2022-08-14T08:59:34.438Z,1.40
2022-08-14T09:00:31.744Z,1.30
2022-08-14T09:01:31.632Z,1.50
2022-08-14T09:02:31.622Z,1.20
2022-08-14T09:03:31.633Z,1.40
2022-08-14T09:04:31.604Z,1.50
2022-08-14T09:05:31.592Z,1.40
2022-08-14T09:07:10.074Z,1.30
2022-08-14T09:07:32.576Z,1.30
2022-08-14T09:08:32.710Z,1.20
2022-08-14T09:09:33.908Z,1.50
2022-08-14T09:10:32.542Z,1.40
2022-08-14T09:11:31.565Z,1.30
2022-08-14T09:12:32.995Z,1.30
2022-08-14T09:13:33.140Z,1.30
2022-08-14T09:14:31.505Z,1.40
2022-08-14T09:15:36.747Z,1.40
2022-08-14T09:16:32.477Z,1.20
2022-08-14T09:17:31.466Z,1.10
2022-08-14T09:18:31.459Z,1.10
2022-08-14T09:19:31.450Z,1.20
2022-08-14T09:20:31.505Z,1.20
2022-08-14T09:21:31.922Z,1.10
2022-08-14T09:22:35.348Z,1.00
2022-08-14T09:23:34.796Z,1.30
2022-08-14T09:24:36.357Z,1.40
2022-08-14T09:26:00.734Z,1.20
2022-08-14T09:26:32.414Z,1.20
2022-08-14T09:27:31.365Z,1.30
2022-08-14T09:28:31.365Z,1.30
2022-08-14T09:29:31.798Z,1.20
2022-08-14T09:30:33.524Z,1.20
2022-08-14T09:31:43.176Z,1.40
2022-08-14T09:32:59.601Z,1.20
2022-08-14T09:33:32.306Z,1.10
2022-08-14T09:34:31.298Z,1.30
2022-08-14T09:35:31.290Z,1.50
2022-08-14T09:36:31.289Z,1.30
2022-08-14T09:37:31.269Z,1.50
2022-08-14T09:38:31.303Z,1.20
2022-08-14T09:39:31.265Z,1.50
2022-08-14T09:40:31.241Z,1.30
2022-08-14T09:42:21.105Z,1.30
2022-08-14T09:42:33.975Z,1.20
2022-08-14T09:43:31.202Z,1.50
2022-08-14T09:44:31.590Z,1.40
2022-08-14T09:45:31.191Z,1.30
2022-08-14T09:46:32.191Z,1.30
2022-08-14T09:47:31.180Z,1.30
2022-08-14T09:48:31.432Z,1.30
2022-08-14T09:49:31.154Z,1.40
2022-08-14T09:50:31.164Z,1.30
2022-08-14T09:51:32.640Z,1.30
2022-08-14T09:52:34.028Z,1.40
2022-08-14T09:54:12.967Z,1.40
2022-08-14T09:54:32.107Z,1.60
2022-08-14T09:55:36.852Z,1.40
2022-08-14T09:56:32.889Z,1.40
2022-08-14T09:57:31.079Z,1.20
2022-08-14T09:58:31.068Z,1.40
2022-08-14T09:59:32.133Z,1.50
2022-08-14T10:00:31.104Z,1.40
2022-08-14T10:01:31.033Z,1.50
2022-08-14T10:02:31.109Z,1.40
2022-08-14T10:03:33.330Z,1.30
2022-08-14T10:04:33.909Z,1.30
2022-08-14T10:05:31.996Z,1.40
2022-08-14T10:06:30.984Z,1.30
2022-08-14T10:07:30.974Z,1.40
2022-08-14T10:08:30.993Z,1.40
2022-08-14T10:09:33.427Z,1.50
2022-08-14T10:10:34.385Z,1.20
2022-08-14T10:11:35.020Z,1.30
2022-08-14T10:12:30.937Z,1.20
2022-08-14T10:13:37.176Z,1.30
2022-08-14T10:14:35.807Z,1.30
2022-08-14T10:15:30.896Z,1.30
2022-08-14T10:16:33.194Z,1.20
2022-08-14T10:17:33.017Z,1.30
2022-08-14T10:18:31.868Z,1.50
2022-08-14T10:19:30.852Z,1.50
2022-08-14T10:20:40.827Z,1.40
2022-08-14T10:21:31.831Z,1.50
2022-08-14T10:23:14.964Z,1.40
2022-08-14T10:23:35.141Z,1.40
2022-08-14T10:24:36.068Z,1.30
2022-08-14T10:25:31.794Z,1.30
2022-08-14T10:26:30.823Z,1.60
2022-08-14T10:27:30.775Z,1.50
2022-08-14T10:28:51.488Z,1.40
2022-08-14T10:29:31.757Z,1.20
2022-08-14T10:30:30.755Z,1.50
2022-08-14T10:31:30.737Z,1.40
2022-08-14T10:32:40.361Z,1.60
2022-08-14T10:33:31.720Z,1.30
2022-08-14T10:34:35.785Z,1.30
2022-08-14T10:35:31.945Z,1.60
2022-08-14T10:36:34.880Z,1.50
2022-08-14T10:37:31.681Z,1.40
2022-08-14T10:38:30.701Z,1.30
2022-08-14T10:39:30.788Z,1.50
2022-08-14T10:40:38.572Z,1.10
2022-08-14T10:41:31.762Z,1.30
2022-08-14T10:42:30.633Z,1.30
2022-08-14T10:43:31.720Z,1.40
2022-08-14T10:44:30.643Z,1.30
2022-08-14T10:45:30.604Z,1.20
2022-08-14T10:47:39.329Z,1.50
2022-08-14T10:47:41.601Z,1.30
2022-08-14T10:48:36.940Z,1.40
2022-08-14T10:49:31.587Z,1.50
2022-08-14T10:50:30.556Z,1.40
2022-08-14T10:51:34.149Z,1.40
2022-08-14T10:52:30.538Z,1.30
2022-08-14T10:53:30.519Z,1.20
2022-08-14T10:54:39.754Z,1.40
2022-08-14T10:55:31.549Z,1.40
2022-08-14T10:56:33.691Z,1.40
2022-08-14T10:57:30.490Z,1.30
2022-08-14T10:58:32.800Z,1.20
2022-08-14T10:59:30.647Z,1.30
2022-08-14T11:00:35.649Z,1.30
2022-08-14T11:01:31.470Z,1.30
2022-08-14T11:02:45.325Z,1.40
2022-08-14T11:03:35.916Z,1.40
2022-08-14T11:04:31.450Z,1.30
2022-08-14T11:05:30.414Z,1.40
2022-08-14T11:06:30.405Z,1.20
2022-08-14T11:07:30.415Z,1.20
2022-08-14T11:08:30.383Z,1.30
2022-08-14T11:09:31.699Z,1.20
2022-08-14T11:10:30.364Z,1.30
2022-08-14T11:11:37.289Z,1.20
2022-08-14T11:12:40.357Z,1.50
2022-08-14T11:13:31.333Z,1.20
2022-08-14T11:14:30.321Z,1.10
2022-08-14T11:15:32.469Z,1.40
2022-08-14T11:16:30.311Z,1.20
2022-08-14T11:17:31.835Z,1.20
2022-08-14T11:18:35.934Z,1.40
2022-08-14T11:19:31.271Z,1.30
2022-08-14T11:20:30.842Z,1.40
2022-08-14T11:21:30.474Z,1.30
2022-08-14T11:22:56.705Z,1.30
2022-08-14T11:23:38.256Z,1.30
2022-08-14T11:24:54.575Z,1.30
2022-08-14T11:25:43.413Z,1.30
2022-08-14T11:26:31.205Z,1.50
2022-08-14T11:27:33.309Z,1.40
2022-08-14T11:28:46.216Z,1.40
2022-08-14T11:29:35.373Z,1.40
2022-08-14T11:30:49.868Z,1.30
2022-08-14T11:31:38.472Z,1.60
2022-08-14T11:32:31.140Z,1.60
2022-08-14T11:33:30.162Z,1.40
2022-08-14T11:34:33.811Z,1.40
2022-08-14T11:35:44.148Z,1.40
2022-08-14T11:36:35.025Z,1.50
2022-08-14T11:37:36.922Z,1.50
2022-08-14T11:38:31.083Z,1.20
2022-08-14T11:39:34.939Z,1.50
2022-08-14T11:40:31.138Z,1.50
2022-08-14T11:41:30.054Z,1.30
2022-08-14T11:42:56.424Z,1.50
2022-08-14T11:43:31.037Z,1.60
2022-08-14T11:44:45.827Z,1.40
2022-08-14T11:45:31.018Z,1.60
2022-08-14T11:46:37.737Z,1.50
2022-08-14T11:47:35.005Z,1.60
2022-08-14T11:49:03.229Z,1.50
2022-08-14T11:49:34.877Z,1.40
2022-08-14T11:50:37.119Z,1.70
2022-08-14T11:51:30.988Z,1.40
2022-08-14T11:52:31.643Z,1.30
2022-08-14T11:53:29.948Z,1.50
2022-08-14T11:54:34.674Z,1.40
2022-08-14T11:55:30.922Z,1.50
2022-08-14T11:56:30.650Z,1.40
2022-08-14T11:57:29.923Z,1.50
2022-08-14T11:58:29.903Z,1.50
2022-08-14T11:59:32.995Z,1.60
2022-08-14T12:00:31.527Z,1.60
2022-08-14T12:01:29.863Z,1.50
2022-08-14T12:03:00.782Z,1.40
2022-08-14T12:03:37.767Z,1.50
2022-08-14T12:04:33.465Z,1.50
2022-08-14T12:05:29.826Z,1.50
2022-08-14T12:06:35.832Z,1.30
2022-08-14T12:07:32.085Z,1.60
2022-08-14T12:08:30.009Z,1.60
2022-08-14T12:09:29.857Z,1.40
2022-08-14T12:10:42.438Z,1.40
2022-08-14T12:11:30.769Z,1.60
2022-08-14T12:12:34.935Z,1.30
2022-08-14T12:13:30.883Z,1.90
2022-08-14T12:14:35.149Z,1.30
2022-08-14T12:15:31.391Z,1.40
2022-08-14T12:16:29.722Z,1.50
2022-08-14T12:17:29.722Z,1.50
2022-08-14T12:18:30.694Z,1.50
2022-08-14T12:19:33.773Z,1.40
2022-08-14T12:20:32.621Z,1.40
2022-08-14T12:21:29.694Z,1.40
2022-08-14T12:22:30.516Z,1.40
2022-08-14T12:23:29.667Z,1.50
2022-08-14T12:24:35.875Z,1.50
2022-08-14T12:25:31.318Z,1.30
2022-08-14T12:26:39.063Z,1.40
2022-08-14T12:27:30.649Z,1.50
2022-08-14T12:28:34.097Z,1.60
2022-08-14T12:29:32.041Z,1.40
2022-08-14T12:30:36.001Z,1.40
2022-08-14T12:31:36.348Z,1.50
2022-08-14T12:32:30.573Z,1.50
2022-08-14T12:33:32.734Z,1.40
2022-08-14T12:34:30.233Z,1.40
2022-08-14T12:35:29.542Z,1.40
2022-08-14T12:36:30.213Z,1.50
2022-08-14T12:37:29.524Z,1.50
2022-08-14T12:38:29.515Z,1.40
2022-08-14T12:39:30.243Z,1.20
2022-08-14T12:40:30.486Z,1.40
2022-08-14T12:41:36.981Z,1.50
2022-08-14T12:42:34.452Z,1.20
2022-08-14T12:43:30.457Z,1.40
2022-08-14T12:44:30.129Z,1.30
2022-08-14T12:45:29.467Z,1.40
2022-08-14T12:46:29.729Z,1.40
2022-08-14T12:47:29.428Z,1.30
2022-08-14T12:48:32.166Z,1.50
2022-08-14T12:49:29.401Z,1.40
2022-08-14T12:50:29.392Z,1.40
2022-08-14T12:51:30.866Z,1.30
2022-08-14T12:52:30.673Z,1.40
2022-08-14T12:53:30.363Z,1.40
2022-08-14T12:54:32.361Z,1.40
2022-08-14T12:55:32.607Z,1.20
2022-08-14T12:56:32.982Z,1.40
2022-08-14T12:57:29.322Z,1.50
2022-08-14T12:58:51.507Z,1.80
2022-08-14T12:59:30.296Z,1.40
2022-08-14T13:00:29.293Z,1.70
2022-08-14T13:01:30.957Z,1.30
2022-08-14T13:02:29.315Z,1.30
2022-08-14T13:03:29.258Z,1.40
2022-08-14T13:04:29.249Z,1.30
2022-08-14T13:05:29.944Z,1.60
2022-08-14T13:06:29.239Z,1.60
2022-08-14T13:07:32.455Z,1.50
2022-08-14T13:08:33.693Z,1.70
2022-08-14T13:09:36.385Z,1.40
2022-08-14T13:10:46.588Z,1.50
2022-08-14T13:11:30.182Z,1.40
2022-08-14T13:12:33.186Z,1.50
2022-08-14T13:13:30.215Z,1.50
2022-08-14T13:14:29.668Z,1.50
2022-08-14T13:15:29.141Z,1.40
2022-08-14T13:16:33.595Z,1.40
2022-08-14T13:17:38.094Z,1.50
2022-08-14T13:18:30.108Z,1.30